Date,TemperatureHighF,TemperatureAvgF,TemperatureLowF,DewpointHighF,DewpointAvgF,DewpointLowF,HumidityHigh,HumidityAvg,HumidityLow,PressureMaxIn,PressureMinIn,WindSpeedMaxMPH,WindSpeedAvgMPH,GustSpeedMaxMPH,PrecipitationSumIn
2013-10-1,58.6,52.8,50.2,48.1,43.8,35.8,79,72,46,29.94,29.74,10,2,10,0.08
2013-10-2,54.7,53.2,50.9,48.1,45.7,40.2,79,76,63,30.03,29.91,10,1,10,0.12
2013-10-3,58.1,51.9,46.4,47.6,43.1,36.9,80,73,48,30.30,30.03,6,0,7,0.00
2013-10-4,59.2,52.3,46.6,48.5,42.7,35.0,80,71,42,30.33,30.21,5,0,6,0.00
2013-10-5,67.6,57.1,51.1,49.2,43.8,30.6,79,64,27,30.21,29.97,5,0,6,0.00
2013-10-6,67.8,61.5,50.7,45.0,40.3,35.8,79,50,33,29.97,29.65,8,1,8,0.00
2013-10-7,67.8,56.9,54.5,49.2,46.0,37.7,77,67,33,29.83,29.68,23,6,23,0.20
2013-10-8,59.0,53.9,51.3,45.5,37.5,29.1,76,55,35,29.94,29.80,19,3,20,0.04
2013-10-9,52.3,48.9,44.4,44.1,39.9,38.3,80,71,62,29.97,29.80,6,1,6,0.00
2013-10-10,55.8,51.5,44.6,48.3,44.2,38.7,80,76,68,29.91,29.77,6,0,6,0.00
2013-10-11,55.4,49.0,44.1,47.3,40.6,37.8,80,73,54,30.00,29.91,5,0,6,0.00
2013-10-12,58.3,53.1,45.1,46.7,41.9,37.7,80,67,48,30.06,29.91,8,1,8,0.00
2013-10-13,59.4,49.2,44.8,46.3,38.9,33.8,80,70,42,30.21,30.06,6,1,6,0.00
2013-10-14,58.3,48.0,45.5,41.5,39.6,38.1,79,74,49,30.30,30.21,8,1,8,0.00
2013-10-15,60.1,49.6,46.8,45.2,41.4,34.9,79,74,43,30.24,30.03,6,1,6,0.00
2013-10-16,59.9,52.5,47.7,42.7,42.2,41.2,79,69,51,30.06,30.00,9,0,9,0.00
2013-10-17,59.9,51.7,45.7,43.2,41.3,39.2,80,69,50,30.12,30.03,5,0,6,0.00
2013-10-18,54.9,50.5,47.3,44.3,43.6,40.8,80,77,66,30.09,30.00,6,0,6,0.04
2013-10-19,51.3,49.3,48.9,43.6,42.8,42.6,79,78,74,30.06,29.97,0,0,0,0.00
2013-10-20,50.2,50.2,50.2,42.6,42.6,42.2,75,75,74,30.06,30.00,3,0,4,0.00
2013-10-21,50.2,50.2,50.2,42.6,42.6,42.6,75,75,75,30.03,29.94,3,1,3,0.00
2013-10-22,50.2,50.2,50.2,42.6,42.6,42.6,75,75,75,29.97,29.88,3,3,3,0.00
2013-10-23,50.2,50.2,50.2,42.6,42.6,42.6,75,75,75,29.91,29.83,3,3,3,0.00
2013-10-24,50.2,50.2,50.2,42.6,42.6,42.6,75,75,75,29.94,29.85,3,3,3,0.00
2013-10-25,50.2,50.2,50.2,42.6,42.6,42.6,75,75,75,30.18,29.94,3,3,3,0.00
2013-10-26,50.2,50.2,50.2,42.6,42.6,42.6,75,75,75,30.18,30.03,3,3,3,0.00
2013-10-27,50.2,50.2,50.2,42.6,42.6,42.6,75,75,75,30.03,29.80,9,3,10,0.04
2013-10-28,50.2,50.2,50.2,42.6,42.6,42.6,75,75,75,29.83,29.74,10,4,10,0.00
2013-10-30,0.0,0.0,0.0,0.0,0.0,0.0,0,0,100,29.94,29.88,8,0,8,0.00
2013-10-31,0.0,0.0,0.0,0.0,0.0,0.0,0,0,100,30.09,29.88,6,1,7,0.08